createdAt,value
2023-01-29T00:01:56.048Z,-1.20
2023-01-29T00:04:23.188Z,-1.20
2023-01-29T00:06:50.071Z,-1.20
2023-01-29T00:09:16.827Z,-1.10
2023-01-29T00:11:43.624Z,-1.10
2023-01-29T00:14:10.431Z,-1.10
2023-01-29T00:16:37.235Z,-1.10
2023-01-29T00:19:04.059Z,-1.10
2023-01-29T00:21:33.478Z,-1.10
2023-01-29T00:24:00.301Z,-1.00
2023-01-29T00:26:27.448Z,-1.00
2023-01-29T00:28:54.611Z,-1.00
2023-01-29T00:31:23.702Z,-1.10
2023-01-29T00:33:50.932Z,-1.10
2023-01-29T00:36:19.280Z,-1.00
2023-01-29T00:38:54.511Z,-1.00
2023-01-29T00:41:41.993Z,-1.00
2023-01-29T00:44:27.468Z,-0.90
2023-01-29T00:46:54.768Z,-1.00
2023-01-29T00:49:22.080Z,-1.00
2023-01-29T00:52:08.907Z,-1.00
2023-01-29T00:54:36.008Z,-1.00
2023-01-29T00:57:03.989Z,-1.10
2023-01-29T00:59:31.902Z,-1.00
2023-01-29T01:02:17.316Z,-1.00
2023-01-29T01:04:44.089Z,-1.00
2023-01-29T01:09:55.885Z,-0.90
2023-01-29T01:12:22.918Z,-0.90
2023-01-29T01:14:49.711Z,-0.90
2023-01-29T01:17:16.632Z,-0.90
2023-01-29T01:19:43.467Z,-0.90
2023-01-29T01:22:10.419Z,-0.90
2023-01-29T01:24:38.078Z,-1.00
2023-01-29T01:27:05.721Z,-1.00
2023-01-29T01:29:32.636Z,-0.90
2023-01-29T01:31:59.880Z,-0.90
2023-01-29T01:34:29.449Z,-0.90
2023-01-29T01:36:56.404Z,-1.00
2023-01-29T01:39:24.488Z,-0.90
2023-01-29T01:41:55.898Z,-0.90
2023-01-29T01:44:50.404Z,-0.90
2023-01-29T01:47:24.710Z,-1.00
2023-01-29T01:49:52.621Z,-0.90
2023-01-29T01:52:20.827Z,-0.90
2023-01-29T01:54:48.131Z,-0.90
2023-01-29T01:57:24.917Z,-0.80
2023-01-29T02:00:01.176Z,-0.70
2023-01-29T02:02:46.693Z,-0.80
2023-01-29T02:05:33.672Z,-0.90
2023-01-29T02:08:19.027Z,-0.90
2023-01-29T02:10:47.373Z,-0.90
2023-01-29T02:13:18.673Z,-0.80
2023-01-29T02:15:48.747Z,-0.90
2023-01-29T02:18:17.772Z,-0.90
2023-01-29T02:21:29.043Z,-0.90
2023-01-29T02:24:27.074Z,-0.90
2023-01-29T02:27:23.230Z,-0.90
2023-01-29T02:30:12.264Z,-0.90
2023-01-29T02:32:54.763Z,-0.90
2023-01-29T02:35:34.569Z,-0.90
2023-01-29T02:38:35.443Z,-0.90
2023-01-29T02:41:15.940Z,-0.90
2023-01-29T02:43:58.889Z,-0.90
2023-01-29T02:46:36.116Z,-0.80
2023-01-29T02:49:27.648Z,-0.70
2023-01-29T02:52:03.727Z,-0.90
2023-01-29T02:54:55.299Z,-0.80
2023-01-29T02:57:29.132Z,-0.80
2023-01-29T03:00:02.306Z,-0.80
2023-01-29T03:02:43.840Z,-0.70
2023-01-29T03:05:15.330Z,-0.70
2023-01-29T03:07:58.562Z,-0.70
2023-01-29T03:10:49.559Z,-0.70
2023-01-29T03:13:29.172Z,-0.70
2023-01-29T03:16:20.998Z,-0.60
2023-01-29T03:19:23.253Z,-0.60
2023-01-29T03:22:01.817Z,-0.60
2023-01-29T03:25:21.828Z,-0.60
2023-01-29T03:28:09.759Z,-0.60
2023-01-29T03:31:18.850Z,-0.60
2023-01-29T03:34:07.839Z,-0.60
2023-01-29T03:36:45.190Z,-0.60
2023-01-29T03:39:14.610Z,-0.60
2023-01-29T03:42:23.753Z,-0.60
2023-01-29T03:45:00.985Z,-0.60
2023-01-29T03:47:51.432Z,-0.60
2023-01-29T03:50:43.247Z,-0.50
2023-01-29T03:53:29.947Z,-0.50
2023-01-29T03:56:37.156Z,-0.50
2023-01-29T03:59:29.859Z,-0.40
2023-01-29T04:02:21.912Z,-0.40
2023-01-29T04:04:51.947Z,-0.40
2023-01-29T04:07:24.372Z,-0.40
2023-01-29T04:10:02.349Z,-0.40
2023-01-29T04:12:48.155Z,-0.40
2023-01-29T04:15:17.490Z,-0.40
2023-01-29T04:17:56.329Z,-0.40
2023-01-29T04:20:36.466Z,-0.40
2023-01-29T04:23:07.099Z,-0.40
2023-01-29T04:25:45.547Z,-0.40
2023-01-29T04:28:25.931Z,-0.50
2023-01-29T04:31:00.652Z,-0.40
2023-01-29T04:33:35.148Z,-0.40
2023-01-29T04:36:10.924Z,-0.40
2023-01-29T04:38:54.399Z,-0.50
2023-01-29T04:41:28.936Z,-0.50
2023-01-29T04:44:01.830Z,-0.50
2023-01-29T04:46:47.620Z,-0.50
2023-01-29T04:49:27.611Z,-0.50
2023-01-29T04:52:15.588Z,-0.40
2023-01-29T04:55:09.965Z,-0.30
2023-01-29T04:57:46.190Z,-0.30
2023-01-29T05:00:24.516Z,-0.30
2023-01-29T05:02:51.460Z,-0.40
2023-01-29T05:05:20.016Z,-0.40
2023-01-29T05:07:48.194Z,-0.40
2023-01-29T05:10:19.162Z,-0.40
2023-01-29T05:12:51.309Z,-0.40
2023-01-29T05:15:23.540Z,-0.30
2023-01-29T05:17:50.363Z,-0.40
2023-01-29T05:20:17.872Z,-0.30
2023-01-29T05:22:45.536Z,-0.30
2023-01-29T05:25:22.298Z,-0.40
2023-01-29T05:28:16.243Z,-0.30
2023-01-29T05:30:51.756Z,-0.30
2023-01-29T05:33:29.916Z,-0.30
2023-01-29T05:35:59.356Z,-0.30
2023-01-29T05:38:26.352Z,-0.10
2023-01-29T05:40:53.982Z,-0.10
2023-01-29T05:43:23.272Z,-0.10
2023-01-29T05:45:58.699Z,-0.20
2023-01-29T05:48:28.728Z,-0.20
2023-01-29T05:51:00.444Z,-0.20
2023-01-29T05:53:29.166Z,-0.20
2023-01-29T05:55:57.202Z,-0.20
2023-01-29T05:58:24.603Z,-0.10
2023-01-29T06:00:51.303Z,0.00
2023-01-29T06:03:18.135Z,0.10
2023-01-29T06:05:45.030Z,0.00
2023-01-29T06:08:12.098Z,0.20
2023-01-29T06:10:38.822Z,0.00
2023-01-29T06:13:05.558Z,0.00
2023-01-29T06:15:32.445Z,-0.10
2023-01-29T06:17:59.254Z,-0.10
2023-01-29T06:20:26.646Z,-0.10
2023-01-29T06:22:53.384Z,0.20
2023-01-29T06:25:20.151Z,0.20
2023-01-29T06:27:50.967Z,0.10
2023-01-29T06:30:18.208Z,0.20
2023-01-29T06:32:45.052Z,0.10
2023-01-29T06:35:11.843Z,0.00
2023-01-29T06:37:38.720Z,0.00
2023-01-29T06:40:06.184Z,0.00
2023-01-29T06:42:35.467Z,-0.10
2023-01-29T06:45:02.156Z,0.00
2023-01-29T06:47:29.027Z,0.00
2023-01-29T06:49:55.869Z,0.00
2023-01-29T06:52:22.671Z,-0.10
2023-01-29T06:54:49.396Z,-0.10
2023-01-29T06:57:16.298Z,-0.10
2023-01-29T06:59:43.094Z,-0.10
2023-01-29T07:02:10.595Z,-0.10
2023-01-29T07:04:37.809Z,-0.10
2023-01-29T07:07:05.222Z,-0.10
2023-01-29T07:09:32.075Z,-0.10
2023-01-29T07:11:58.824Z,-0.10
2023-01-29T07:14:25.664Z,0.00
2023-01-29T07:16:52.597Z,0.00
2023-01-29T07:19:19.295Z,0.00
2023-01-29T07:21:46.276Z,0.00
2023-01-29T07:24:13.211Z,0.20
2023-01-29T07:26:39.925Z,0.20
2023-01-29T07:29:06.748Z,0.20
2023-01-29T07:31:33.983Z,0.10
2023-01-29T07:34:00.848Z,0.00
2023-01-29T07:36:28.317Z,0.10
2023-01-29T07:38:55.336Z,0.00
2023-01-29T07:41:22.224Z,0.00
2023-01-29T07:43:49.057Z,0.00
2023-01-29T07:46:15.940Z,0.00
2023-01-29T07:48:42.782Z,0.00
2023-01-29T07:51:09.584Z,0.00
2023-01-29T07:53:36.962Z,0.00
2023-01-29T07:56:03.955Z,0.00
2023-01-29T07:58:30.805Z,-0.10
2023-01-29T08:00:57.702Z,-0.10
2023-01-29T08:03:24.501Z,-0.20
2023-01-29T08:05:51.275Z,-0.10
2023-01-29T08:08:19.260Z,-0.10
2023-01-29T08:10:46.104Z,-0.10
2023-01-29T08:13:12.929Z,-0.10
2023-01-29T08:15:44.120Z,0.00
2023-01-29T08:18:11.216Z,0.00
2023-01-29T08:20:38.340Z,0.00
2023-01-29T08:23:07.937Z,0.00
2023-01-29T08:25:36.059Z,0.00
2023-01-29T08:28:04.179Z,0.00
2023-01-29T08:30:33.506Z,0.20
2023-01-29T08:33:00.670Z,0.20
2023-01-29T08:35:27.729Z,0.10
2023-01-29T08:37:59.435Z,0.00
2023-01-29T08:40:27.891Z,0.20
2023-01-29T08:43:08.688Z,0.20
2023-01-29T08:45:38.132Z,0.20
2023-01-29T08:48:05.493Z,0.20
2023-01-29T08:50:34.750Z,0.10
2023-01-29T08:53:07.874Z,0.00
2023-01-29T08:55:39.604Z,0.00
2023-01-29T08:58:07.701Z,0.00
2023-01-29T09:00:35.536Z,0.00
2023-01-29T09:03:03.186Z,0.20
2023-01-29T09:05:29.931Z,0.30
2023-01-29T09:07:58.033Z,0.30
2023-01-29T09:10:26.099Z,0.20
2023-01-29T09:12:52.801Z,0.30
2023-01-29T09:15:20.052Z,0.30
2023-01-29T09:17:47.015Z,0.40
2023-01-29T09:20:14.199Z,0.40
2023-01-29T09:22:41.723Z,0.60
2023-01-29T09:25:09.540Z,0.70
2023-01-29T09:27:36.302Z,0.70
2023-01-29T09:30:04.669Z,0.60
2023-01-29T09:33:01.950Z,0.60
2023-01-29T09:35:19.135Z,0.60
2023-01-29T09:37:49.923Z,0.60
2023-01-29T09:40:27.091Z,0.80
2023-01-29T09:43:07.213Z,0.70
2023-01-29T09:45:35.317Z,0.80
2023-01-29T09:48:05.642Z,0.80
2023-01-29T09:50:40.072Z,1.00
2023-01-29T09:53:10.781Z,0.90
2023-01-29T09:55:41.315Z,1.00
2023-01-29T09:58:25.292Z,1.00
2023-01-29T10:01:07.237Z,1.10
2023-01-29T10:03:55.803Z,1.20
2023-01-29T10:06:45.937Z,1.20
2023-01-29T10:09:57.430Z,1.40
2023-01-29T10:12:44.756Z,1.30
2023-01-29T10:15:22.904Z,1.50
2023-01-29T10:18:09.861Z,1.40
2023-01-29T10:20:53.358Z,1.50
2023-01-29T10:23:38.312Z,1.60
2023-01-29T10:26:05.023Z,1.80
2023-01-29T10:28:38.110Z,1.80
2023-01-29T10:31:10.074Z,2.00
2023-01-29T10:33:49.227Z,2.00
2023-01-29T10:36:34.191Z,1.90
2023-01-29T10:39:00.926Z,2.00
2023-01-29T10:42:09.592Z,1.90
2023-01-29T10:45:08.525Z,1.60
2023-01-29T10:47:57.225Z,1.90
2023-01-29T10:50:52.205Z,1.80
2023-01-29T10:53:41.904Z,1.70
2023-01-29T10:56:23.439Z,2.00
2023-01-29T10:59:02.807Z,2.10
2023-01-29T11:01:29.684Z,2.00
2023-01-29T11:04:00.754Z,1.90
2023-01-29T11:06:35.498Z,1.90
2023-01-29T11:09:24.948Z,1.80
2023-01-29T11:12:05.763Z,1.80
2023-01-29T11:14:55.445Z,1.70
2023-01-29T11:17:24.608Z,1.60
2023-01-29T11:19:53.441Z,1.70
2023-01-29T11:22:25.113Z,1.90
2023-01-29T11:25:10.402Z,1.90
2023-01-29T11:27:44.770Z,1.80
2023-01-29T11:30:30.050Z,1.80
2023-01-29T11:33:11.928Z,2.00
2023-01-29T11:35:38.761Z,2.30
2023-01-29T11:38:16.947Z,2.30
2023-01-29T11:40:44.544Z,2.20
2023-01-29T11:43:30.204Z,2.20
2023-01-29T11:46:17.304Z,2.20
2023-01-29T11:48:50.114Z,2.20
2023-01-29T11:51:38.087Z,2.20
2023-01-29T11:54:05.683Z,2.30
2023-01-29T11:56:41.321Z,2.10
2023-01-29T11:59:37.642Z,2.10
2023-01-29T12:02:16.508Z,2.00
2023-01-29T12:04:43.408Z,2.00
2023-01-29T12:07:16.513Z,2.10
2023-01-29T12:09:51.880Z,1.90
2023-01-29T12:12:30.881Z,1.90
2023-01-29T12:15:26.478Z,1.90
2023-01-29T12:18:25.844Z,1.90
2023-01-29T12:21:03.160Z,1.90
2023-01-29T12:23:57.019Z,1.90
2023-01-29T12:26:43.084Z,1.90
2023-01-29T12:29:25.938Z,1.80
2023-01-29T12:32:02.989Z,1.80
2023-01-29T12:35:23.822Z,1.90
2023-01-29T12:38:09.857Z,2.00
2023-01-29T12:41:23.424Z,2.00
2023-01-29T12:43:56.058Z,2.00
2023-01-29T12:46:27.926Z,2.00
2023-01-29T12:48:57.772Z,2.00
2023-01-29T12:51:34.468Z,2.00
2023-01-29T12:54:14.114Z,2.10
2023-01-29T12:56:55.760Z,2.30
2023-01-29T12:59:25.286Z,2.30
2023-01-29T13:01:59.593Z,2.30
2023-01-29T13:04:41.154Z,2.20
2023-01-29T13:07:24.688Z,2.30
2023-01-29T13:09:57.164Z,2.20
2023-01-29T13:12:24.564Z,2.20
2023-01-29T13:15:20.655Z,2.10
2023-01-29T13:17:52.891Z,2.10
2023-01-29T13:20:25.624Z,2.00
2023-01-29T13:22:56.357Z,2.10
2023-01-29T13:25:23.444Z,2.20
2023-01-29T13:27:50.790Z,2.20
2023-01-29T13:30:29.600Z,2.20
2023-01-29T13:33:09.134Z,2.10
2023-01-29T13:35:42.405Z,2.10
2023-01-29T13:38:28.346Z,2.10
2023-01-29T13:41:06.393Z,2.00
2023-01-29T13:43:37.607Z,2.00
2023-01-29T13:46:18.338Z,2.00
2023-01-29T13:48:47.928Z,2.00
2023-01-29T13:51:20.878Z,2.00
2023-01-29T13:54:05.822Z,2.10
2023-01-29T13:56:43.797Z,2.10
2023-01-29T13:59:44.745Z,2.10
2023-01-29T14:02:23.264Z,2.10
2023-01-29T14:04:50.087Z,2.00
2023-01-29T14:07:45.496Z,2.00
2023-01-29T14:10:21.841Z,2.00
2023-01-29T14:13:23.765Z,2.00
2023-01-29T14:15:59.602Z,2.00
2023-01-29T14:18:28.305Z,2.00
2023-01-29T14:21:05.627Z,2.00
2023-01-29T14:23:46.525Z,1.90
2023-01-29T14:26:45.132Z,2.00
2023-01-29T14:29:37.999Z,2.00
2023-01-29T14:32:07.423Z,1.80
2023-01-29T14:34:35.911Z,1.90
2023-01-29T14:37:19.308Z,1.80
2023-01-29T14:39:56.178Z,1.80
2023-01-29T14:42:35.638Z,1.80
2023-01-29T14:45:11.407Z,1.80
2023-01-29T14:47:38.156Z,1.80
2023-01-29T14:50:26.722Z,1.80
2023-01-29T14:52:54.529Z,1.80
2023-01-29T14:55:31.851Z,1.80
2023-01-29T14:57:59.125Z,1.70
2023-01-29T15:00:30.150Z,1.60
2023-01-29T15:03:01.901Z,1.60
2023-01-29T15:05:37.041Z,1.70
2023-01-29T15:08:12.985Z,1.60
2023-01-29T15:10:48.262Z,1.70
2023-01-29T15:13:24.530Z,1.70
2023-01-29T15:15:56.874Z,1.70
2023-01-29T15:18:42.803Z,1.70
2023-01-29T15:21:14.810Z,1.70
2023-01-29T15:23:43.224Z,1.60
2023-01-29T15:26:16.033Z,1.60
2023-01-29T15:28:47.112Z,1.60
2023-01-29T15:31:18.381Z,1.60
2023-01-29T15:33:47.804Z,1.60
2023-01-29T15:36:26.853Z,1.40
2023-01-29T15:39:19.616Z,1.50
2023-01-29T15:41:47.005Z,1.40
2023-01-29T15:44:22.377Z,1.30
2023-01-29T15:46:54.340Z,1.40
2023-01-29T15:49:30.868Z,1.40
2023-01-29T15:52:04.528Z,1.40
2023-01-29T15:54:34.743Z,1.40
2023-01-29T15:57:02.729Z,1.40
2023-01-29T15:59:34.607Z,1.40
2023-01-29T16:02:29.564Z,1.40
2023-01-29T16:04:56.485Z,1.30
2023-01-29T16:07:23.417Z,1.30
2023-01-29T16:09:52.407Z,1.20
2023-01-29T16:12:19.804Z,1.30
2023-01-29T16:14:49.393Z,1.40
2023-01-29T16:17:30.578Z,1.40
2023-01-29T16:20:02.107Z,1.20
2023-01-29T16:22:34.927Z,1.30
2023-01-29T16:25:06.443Z,1.30
2023-01-29T16:27:34.750Z,1.40
2023-01-29T16:30:02.109Z,1.40
2023-01-29T16:32:30.492Z,1.40
2023-01-29T16:35:00.565Z,1.40
2023-01-29T16:37:31.013Z,1.40
2023-01-29T16:39:58.020Z,1.40
2023-01-29T16:42:30.256Z,1.40
2023-01-29T16:45:01.978Z,1.40
2023-01-29T16:47:43.860Z,1.40
2023-01-29T16:50:40.475Z,1.40
2023-01-29T16:53:19.656Z,1.30
2023-01-29T16:55:49.587Z,1.40
2023-01-29T16:58:30.354Z,1.40
2023-01-29T17:01:09.130Z,1.30
2023-01-29T17:03:37.172Z,1.40
2023-01-29T17:06:38.003Z,1.40
2023-01-29T17:09:05.774Z,1.40
2023-01-29T17:11:39.872Z,1.40
2023-01-29T17:14:08.076Z,1.40
2023-01-29T17:16:37.515Z,1.40
2023-01-29T17:19:18.376Z,1.30
2023-01-29T17:21:45.824Z,1.30
2023-01-29T17:24:12.824Z,1.40
2023-01-29T17:26:39.950Z,1.50
2023-01-29T17:29:08.639Z,1.40
2023-01-29T17:31:35.452Z,1.40
2023-01-29T17:34:02.209Z,1.50
2023-01-29T17:36:28.981Z,1.50
2023-01-29T17:38:55.682Z,1.50
2023-01-29T17:41:28.188Z,1.60
2023-01-29T17:43:55.049Z,1.60
2023-01-29T17:46:22.633Z,1.60
2023-01-29T17:48:49.497Z,1.50
2023-01-29T17:51:18.142Z,1.50
2023-01-29T17:53:46.977Z,1.70
2023-01-29T17:56:16.935Z,1.70
2023-01-29T17:58:44.038Z,1.60
2023-01-29T18:01:10.790Z,1.60
2023-01-29T18:03:37.603Z,1.60
2023-01-29T18:06:07.913Z,1.50
2023-01-29T18:08:36.354Z,1.50
2023-01-29T18:11:03.173Z,1.50
2023-01-29T18:13:30.159Z,1.50
2023-01-29T18:15:56.971Z,1.50
2023-01-29T18:18:24.568Z,1.40
2023-01-29T18:20:51.603Z,1.50
2023-01-29T18:23:18.364Z,1.60
2023-01-29T18:25:45.263Z,1.70
2023-01-29T18:28:19.587Z,1.60
2023-01-29T18:30:47.506Z,1.60
2023-01-29T18:33:15.686Z,1.40
2023-01-29T18:35:48.214Z,1.40
2023-01-29T18:38:15.364Z,1.50
2023-01-29T18:40:42.190Z,1.40
2023-01-29T18:43:09.197Z,1.40
2023-01-29T18:45:36.079Z,1.10
2023-01-29T18:48:04.316Z,1.20
2023-01-29T18:50:31.243Z,1.30
2023-01-29T18:52:57.967Z,1.10
2023-01-29T18:55:26.491Z,1.20
2023-01-29T18:58:28.820Z,1.10
2023-01-29T19:00:41.101Z,1.10
2023-01-29T19:03:07.861Z,1.20
2023-01-29T19:05:34.755Z,1.20
2023-01-29T19:08:01.849Z,1.20
2023-01-29T19:10:28.826Z,1.20
2023-01-29T19:12:55.504Z,1.10
2023-01-29T19:15:22.890Z,1.20
2023-01-29T19:17:53.210Z,1.30
2023-01-29T19:20:20.407Z,1.30
2023-01-29T19:22:47.148Z,1.30
2023-01-29T19:25:14.048Z,1.30
2023-01-29T19:27:40.910Z,1.40
2023-01-29T19:30:08.539Z,1.40
2023-01-29T19:32:35.447Z,1.40
2023-01-29T19:35:02.261Z,1.30
2023-01-29T19:37:30.813Z,1.20
2023-01-29T19:39:57.821Z,1.20
2023-01-29T19:42:24.640Z,1.20
2023-01-29T19:44:52.271Z,1.40
2023-01-29T19:47:19.187Z,1.40
2023-01-29T19:49:46.736Z,1.20
2023-01-29T19:52:49.848Z,1.20
2023-01-29T19:55:18.044Z,1.30
2023-01-29T19:57:45.155Z,1.40
2023-01-29T20:00:14.755Z,1.40
2023-01-29T20:02:41.469Z,1.40
2023-01-29T20:05:11.174Z,1.30
2023-01-29T20:07:39.790Z,1.40
2023-01-29T20:10:09.642Z,1.40
2023-01-29T20:12:36.881Z,1.30
2023-01-29T20:15:04.104Z,1.40
2023-01-29T20:17:30.944Z,1.40
2023-01-29T20:19:57.632Z,1.20
2023-01-29T20:22:26.630Z,1.10
2023-01-29T20:24:53.772Z,1.20
2023-01-29T20:27:20.587Z,1.20
2023-01-29T20:29:47.351Z,1.20
2023-01-29T20:32:14.576Z,1.20
2023-01-29T20:34:41.509Z,1.40
2023-01-29T20:37:08.182Z,1.40
2023-01-29T20:39:34.927Z,1.50
2023-01-29T20:42:01.666Z,1.40
2023-01-29T20:44:28.635Z,1.40
2023-01-29T20:46:56.253Z,1.50
2023-01-29T20:49:23.038Z,1.50
2023-01-29T20:51:50.001Z,1.50
2023-01-29T20:54:16.789Z,1.50
2023-01-29T20:56:46.139Z,1.50
2023-01-29T20:59:13.992Z,1.50
2023-01-29T21:01:41.547Z,1.70
2023-01-29T21:04:08.198Z,1.80
2023-01-29T21:06:35.094Z,1.70
2023-01-29T21:09:01.900Z,1.70
2023-01-29T21:11:28.713Z,1.90
2023-01-29T21:13:57.721Z,1.80
2023-01-29T21:16:26.098Z,1.90
2023-01-29T21:18:56.719Z,2.00
2023-01-29T21:21:23.833Z,1.90
2023-01-29T21:23:50.523Z,1.90
2023-01-29T21:26:18.748Z,2.10
2023-01-29T21:28:46.008Z,2.10
2023-01-29T21:31:17.560Z,2.10
2023-01-29T21:33:44.604Z,2.10
2023-01-29T21:36:11.771Z,2.10
2023-01-29T21:38:39.194Z,2.10
2023-01-29T21:41:08.751Z,2.00
2023-01-29T21:43:35.999Z,2.00
2023-01-29T21:46:05.042Z,2.20
2023-01-29T21:48:32.423Z,2.10
2023-01-29T21:50:59.120Z,2.20
2023-01-29T21:53:25.943Z,2.20
2023-01-29T21:55:52.818Z,2.10
2023-01-29T21:58:20.450Z,2.10
2023-01-29T22:00:48.697Z,2.10
2023-01-29T22:03:15.835Z,2.10
2023-01-29T22:05:42.788Z,2.10
2023-01-29T22:08:09.863Z,2.20
2023-01-29T22:10:36.959Z,2.20
2023-01-29T22:13:04.047Z,2.30
2023-01-29T22:15:30.771Z,2.30
2023-01-29T22:17:57.614Z,2.30
2023-01-29T22:20:29.957Z,2.40
2023-01-29T22:22:59.319Z,2.20
2023-01-29T22:25:26.863Z,2.30
2023-01-29T22:27:53.813Z,2.30
2023-01-29T22:30:21.668Z,2.40
2023-01-29T22:32:48.634Z,2.40
2023-01-29T22:35:15.487Z,2.30
2023-01-29T22:37:42.500Z,2.40
2023-01-29T22:40:10.038Z,2.30
2023-01-29T22:42:36.737Z,2.30
2023-01-29T22:45:03.585Z,2.40
2023-01-29T22:47:32.792Z,2.40
2023-01-29T22:49:59.567Z,2.50
2023-01-29T22:52:27.913Z,2.40
2023-01-29T22:54:54.704Z,2.30
2023-01-29T22:57:21.488Z,2.30
2023-01-29T22:59:48.239Z,2.20
2023-01-29T23:02:15.001Z,2.40
2023-01-29T23:04:41.876Z,2.40
2023-01-29T23:07:08.674Z,2.50
2023-01-29T23:09:35.438Z,2.40
2023-01-29T23:12:02.156Z,2.30
2023-01-29T23:14:28.864Z,2.40
2023-01-29T23:16:55.539Z,2.40
2023-01-29T23:19:22.516Z,2.30
2023-01-29T23:21:49.390Z,2.40
2023-01-29T23:24:16.445Z,2.30
2023-01-29T23:27:02.034Z,2.30
2023-01-29T23:29:28.836Z,2.40
2023-01-29T23:31:55.587Z,2.40
2023-01-29T23:34:22.374Z,2.40
2023-01-29T23:36:49.194Z,2.30
2023-01-29T23:39:16.355Z,2.20
2023-01-29T23:41:43.697Z,2.20
2023-01-29T23:44:10.575Z,2.20
2023-01-29T23:46:37.434Z,2.20
2023-01-29T23:49:04.246Z,2.30
2023-01-29T23:51:31.180Z,2.50
2023-01-29T23:53:58.291Z,2.50
2023-01-29T23:56:25.442Z,2.50
2023-01-29T23:58:56.156Z,2.40
